WetterOnline ( https://www.wetteronline.de )

Wetter aktuell Neustadt i.H.

Aktuelles Wetter: Pelzerhaken/Neustadt i.H. (2m)

6-stündlich | Neueste Meldungen
Ortszeit Temperatur Wetter
So, 29.11. 19:00 3.3° C bedeckt
So, 29.11. 13:00 4.3° C wolkenlos
So, 29.11. 7:00 2.8° C bedeckt
So, 29.11. 1:00 2.5° C bedeckt
Sa, 28.11. 19:00 3.8° C fast wolkenlos
Sa, 28.11. 13:00 4.0° C bedeckt
Sa, 28.11. 7:00 -1.1° C Nebel
Sa, 28.11. 1:00 0.9° C Nebel
Ortszeit Temperatur Wetter
So, 29.11. 20:30 3.5° C bewölkt
So, 29.11. 20:20 3.5° C bewölkt
So, 29.11. 20:10 3.5° C bewölkt
So, 29.11. 20:00 3.3° C bewölkt
So, 29.11. 19:50 3.3° C bewölkt
So, 29.11. 19:40 3.5° C bedeckt
So, 29.11. 19:30 3.3° C bedeckt
So, 29.11. 19:00 3.3° C bedeckt
Ortszeit Relative Feuchte Sichtweite
So, 29.11. 19:00 78% 60 km
So, 29.11. 13:00 75% 50 km
So, 29.11. 7:00 97% 6 km
So, 29.11. 1:00 87% 45 km
Sa, 28.11. 19:00 81% 65 km
Sa, 28.11. 13:00 84% 40 km
Sa, 28.11. 7:00 99% 0.5 km
Sa, 28.11. 1:00 100% 0.2 km
Ortszeit Relative Feuchte Sichtweite
So, 29.11. 20:30 75% 55 km
So, 29.11. 20:20 75% -
So, 29.11. 20:10 74% -
So, 29.11. 20:00 77% >70 km
So, 29.11. 19:50 77% -
So, 29.11. 19:40 74% -
So, 29.11. 19:30 77% 65 km
So, 29.11. 19:00 78% 60 km
Ortszeit Niederschlagsmenge Niederschlagsart
So, 29.11. 19:00 0.0 l/m2 in 12 Std. -
So, 29.11. 13:00 0.0 l/m2 in 6 Std. -
So, 29.11. 7:00 0.1 l/m2 in 12 Std. Sprühregen
So, 29.11. 1:00 0.0 l/m2 in 6 Std. -
Sa, 28.11. 19:00 0.0 l/m2 in 12 Std. -
Sa, 28.11. 13:00 0.0 l/m2 in 6 Std. -
Sa, 28.11. 7:00 0.0 l/m2 in 12 Std. -
Sa, 28.11. 1:00 0.0 l/m2 in 6 Std. -
Ortszeit Niederschlagsmenge Niederschlagsart
So, 29.11. 20:30 0.0 l/m2 in 1 Std. -
So, 29.11. 20:20 keine Meldung -
So, 29.11. 20:10 keine Meldung -
So, 29.11. 20:00 0.1 l/m2 in 1 Std. Sprühregen
So, 29.11. 19:50 keine Meldung -
So, 29.11. 19:40 keine Meldung -
So, 29.11. 19:30 0.1 l/m2 in 1 Std. Schnee
So, 29.11. 19:00 0.0 l/m2 in 1 Std. -
Ortszeit Stärke Spitze Richtung
km/h Bft. km/h Grad Sektor
So, 29.11. 19:00 7 2 22 330° NW
So, 29.11. 13:00 9 2 19 320° NW
So, 29.11. 7:00 11 2 22 40° NO
So, 29.11. 1:00 9 2 15 320° NW
Sa, 28.11. 19:00 7 2 29 150° SO
Sa, 28.11. 13:00 19 3 30 140° SO
Sa, 28.11. 7:00 6 1 7 320° NW
Sa, 28.11. 1:00 4 1 11 180° S
Ortszeit Stärke Spitze Richtung
km/h Bft. km/h Grad Sektor
So, 29.11. 20:30 7 2 14 350° N
So, 29.11. 20:20 7 2 - 350° N
So, 29.11. 20:10 9 2 - 320° NW
So, 29.11. 20:00 7 2 18 330° NW
So, 29.11. 19:50 7 2 - 330° NW
So, 29.11. 19:40 11 2 - 330° NW
So, 29.11. 19:30 7 2 11 350° N
So, 29.11. 19:00 7 2 11 330° NW
Ortszeit Untergrenze Bedeckung Gattung
total tief tief mittel hoch
So, 29.11. 19:00 630 m 8/8 8/8 - - -
So, 29.11. 13:00 - 0/8 0/8 - - -
So, 29.11. 7:00 120 m 8/8 8/8 - - -
So, 29.11. 1:00 1080 m 8/8 8/8 - - -
Sa, 28.11. 19:00 870 m 0/8 0/8 - - -
Sa, 28.11. 13:00 450 m 8/8 8/8 - - -
Sa, 28.11. 7:00 <30 m 1/8 0/8 - - -
Sa, 28.11. 1:00 <30 m 8/8 0/8 - - -
Ortszeit Bedeckungsgrad in Achtel und Wolkenuntergrenze
So, 29.11. 20:30 7(660m)
So, 29.11. 20:20 7(660m)
So, 29.11. 20:10 7(630m)
So, 29.11. 20:00 7(660m)
So, 29.11. 19:50 7(660m)
So, 29.11. 19:40 8(690m)
So, 29.11. 19:30 8(690m)
So, 29.11. 19:00 8(630m)
Ortszeit Luftdruck NN (hPa) Tendenz (hPa in 3 Std.)
So, 29.11. 19:00 1028 - 0,1
So, 29.11. 13:00 1028 - 0,6
So, 29.11. 7:00 1028 + 0,1
So, 29.11. 1:00 1029 + 0,2
Sa, 28.11. 19:00 1028 + 0,6
Sa, 28.11. 13:00 1027 + 0,7
Sa, 28.11. 7:00 1025 + 0,5
Sa, 28.11. 1:00 1024 + 0,4
Ortszeit Luftdruck NN (hPa) Tendenz (hPa in 3 Std.)
So, 29.11. 20:30 1028 + 0,1
So, 29.11. 20:20 1028 keine Meldung
So, 29.11. 20:10 1028 keine Meldung
So, 29.11. 20:00 1028 + 0,1
So, 29.11. 19:50 1028 keine Meldung
So, 29.11. 19:40 1028 keine Meldung
So, 29.11. 19:30 1028 0,0
So, 29.11. 19:00 1028 - 0,1
Ortszeit Schneehöhe (cm)
So, 29.11. 19:00 0
So, 29.11. 13:00 0
So, 29.11. 7:00 0
So, 29.11. 1:00 0
Sa, 28.11. 19:00 0
Sa, 28.11. 13:00 0
Sa, 28.11. 7:00 0
Sa, 28.11. 1:00 0
Ortszeit Schneehöhe (cm)
So, 29.11. 20:30 0
So, 29.11. 20:20 0
So, 29.11. 20:10 0
So, 29.11. 20:00 0
So, 29.11. 19:50 0
So, 29.11. 19:40 0
So, 29.11. 19:30 0
So, 29.11. 19:00 0
Link zu dieser Seite / Seite empfehlen

Das Wetter in ...